Time;durP1;ratioP1;P1;durP2;ratioP2;P2;SDS_P1;SDS_P2;PMS_P1;PMS_P2;Temp;Humidity;BMP_temperature;BMP_pressure;BME280_temperature;BME280_humidity;BME280_pressure;Samples;Min_cycle;Max_cycle;Signal;HPM_P1;HPM_P2
2023/11/15 00:02:08;;;;;;;2.80;0.75;;;;;;;;;;6280766;22;20016;-78
2023/11/15 00:04:38;;;;;;;2.33;0.90;;;;;;;;;;6279621;22;20015;-79
2023/11/15 00:07:08;;;;;;;1.80;0.60;;;;;;;;;;6306507;22;20024;-79
2023/11/15 00:09:38;;;;;;;1.77;0.90;;;;;;;;;;6306602;22;20016;-79
2023/11/15 00:12:08;;;;;;;2.05;0.57;;;;;;;;;;6317423;22;20022;-78
2023/11/15 00:14:38;;;;;;;1.60;0.70;;;;;;;;;;6306646;22;20322;-79
2023/11/15 00:17:08;;;;;;;1.58;0.70;;;;;;;;;;6306452;22;20354;-79
2023/11/15 00:19:39;;;;;;;3.63;0.80;;;;;;;;;;6305969;22;20011;-79
2023/11/15 00:22:09;;;;;;;2.95;1.00;;;;;;;;;;6279134;22;20015;-81
2023/11/15 00:24:38;;;;;;;1.60;0.52;;;;;;;;;;6305548;22;20354;-80
2023/11/15 00:27:08;;;;;;;2.30;0.77;;;;;;;;;;6305699;22;20422;-79
2023/11/15 00:29:39;;;;;;;1.33;0.60;;;;;;;;;;6277413;22;20027;-80
2023/11/15 00:32:10;;;;;;;2.33;0.60;;;;;;;;;;6305911;22;20014;-79
2023/11/15 00:34:40;;;;;;;2.28;0.77;;;;;;;;;;6316231;22;20019;-82
2023/11/15 00:37:13;;;;;;;2.38;0.90;;;;;;;;;;6254223;22;20350;-79
2023/11/15 00:39:43;;;;;;;1.73;0.70;;;;;;;;;;6280494;22;20027;-79
2023/11/15 00:42:13;;;;;;;2.72;0.88;;;;;;;;;;6307600;22;20501;-79
2023/11/15 00:44:43;;;;;;;2.50;0.65;;;;;;;;;;6306894;22;20426;-81
2023/11/15 00:47:14;;;;;;;1.70;0.63;;;;;;;;;;6277372;22;20022;-79
2023/11/15 00:49:44;;;;;;;5.55;0.90;;;;;;;;;;6307709;22;20017;-81
2023/11/15 00:52:15;;;;;;;2.42;0.70;;;;;;;;;;6305937;22;20319;-79
2023/11/15 00:54:45;;;;;;;1.73;0.65;;;;;;;;;;6306262;22;20027;-79
2023/11/15 00:57:18;;;;;;;1.38;0.80;;;;;;;;;;6278826;22;20022;-80
2023/11/15 03:20:10;;;;;;;3.05;0.80;;;;;;;;;;6286661;22;20027;-79
2023/11/15 03:22:40;;;;;;;1.52;0.70;;;;;;;;;;6264426;22;20007;-80
2023/11/15 03:25:10;;;;;;;2.03;1.00;;;;;;;;;;6306850;22;20019;-79
2023/11/15 03:27:41;;;;;;;4.20;0.88;;;;;;;;;;6306268;22;20015;-78
2023/11/15 03:30:13;;;;;;;2.03;0.80;;;;;;;;;;6316450;22;20015;-80
2023/11/15 03:32:44;;;;;;;3.70;0.80;;;;;;;;;;6278767;22;20019;-78
2023/11/15 03:35:16;;;;;;;1.45;0.75;;;;;;;;;;6290615;22;20419;-78
2023/11/15 03:37:46;;;;;;;3.42;1.00;;;;;;;;;;6317602;22;20007;-77
2023/11/15 03:40:19;;;;;;;3.45;0.95;;;;;;;;;;6278346;22;20023;-78
2023/11/15 03:42:50;;;;;;;3.50;0.90;;;;;;;;;;6316770;22;20022;-80
2023/11/15 03:45:21;;;;;;;5.82;1.10;;;;;;;;;;6254107;22;20027;-78
2023/11/15 03:47:51;;;;;;;3.25;0.68;;;;;;;;;;6279158;22;20019;-78
2023/11/15 03:50:21;;;;;;;3.80;1.05;;;;;;;;;;6277526;22;20019;-78
2023/11/15 03:52:52;;;;;;;5.28;0.93;;;;;;;;;;6277802;22;20030;-78
2023/11/15 03:55:22;;;;;;;2.85;0.80;;;;;;;;;;6306751;22;20019;-79
2023/11/15 03:57:52;;;;;;;4.72;0.95;;;;;;;;;;6278639;22;20030;-80
2023/11/15 04:00:22;;;;;;;5.47;1.00;;;;;;;;;;6307473;22;20022;-80
2023/11/15 04:02:52;;;;;;;7.10;0.90;;;;;;;;;;6305463;22;20324;-79
2023/11/15 04:05:22;;;;;;;2.65;0.70;;;;;;;;;;6254242;22;20019;-79
2023/11/15 04:07:53;;;;;;;2.22;0.80;;;;;;;;;;6307958;22;20015;-79
2023/11/15 05:17:54;;;;;;;4.05;1.00;;;;;;;;;;6276241;22;20024;-78
2023/11/15 05:20:25;;;;;;;3.63;0.80;;;;;;;;;;6318800;22;20014;-78
2023/11/15 05:22:55;;;;;;;4.53;1.10;;;;;;;;;;6281427;22;20132;-78
2023/11/15 05:25:28;;;;;;;2.17;0.65;;;;;;;;;;6308836;22;20022;-78
2023/11/15 05:27:58;;;;;;;2.47;1.45;;;;;;;;;;6318628;22;20033;-78
2023/11/15 05:30:29;;;;;;;4.30;0.90;;;;;;;;;;6308194;22;20015;-78
2023/11/15 05:32:58;;;;;;;5.28;1.40;;;;;;;;;;6308178;22;20011;-78
2023/11/15 05:35:30;;;;;;;3.55;1.10;;;;;;;;;;6280137;22;20338;-78
2023/11/15 05:38:01;;;;;;;3.17;1.00;;;;;;;;;;6308890;22;20330;-78
2023/11/15 05:40:31;;;;;;;4.50;1.30;;;;;;;;;;6280978;22;20012;-78
2023/11/15 05:43:01;;;;;;;3.38;1.00;;;;;;;;;;6307732;22;20012;-79
2023/11/15 05:45:31;;;;;;;3.33;1.20;;;;;;;;;;6307609;22;20023;-78
2023/11/15 05:48:02;;;;;;;3.80;0.80;;;;;;;;;;6318960;22;20292;-78
2023/11/15 05:50:33;;;;;;;6.97;1.33;;;;;;;;;;6307473;22;20011;-78
2023/11/15 05:53:05;;;;;;;3.63;1.15;;;;;;;;;;6306798;22;20012;-79
2023/11/15 05:55:35;;;;;;;1.95;1.10;;;;;;;;;;6318038;22;20339;-77
2023/11/15 05:58:05;;;;;;;4.03;0.90;;;;;;;;;;6308211;22;20461;-77
2023/11/15 06:00:35;;;;;;;4.90;0.98;;;;;;;;;;6280875;22;20015;-78
2023/11/15 06:03:06;;;;;;;2.92;0.80;;;;;;;;;;6307764;22;20018;-79
2023/11/15 06:05:37;;;;;;;3.97;1.02;;;;;;;;;;6307083;22;20064;-78
2023/11/15 06:08:08;;;;;;;2.90;1.00;;;;;;;;;;6318575;22;20019;-78
2023/11/15 06:10:38;;;;;;;4.20;0.90;;;;;;;;;;6279622;22;20339;-77
2023/11/15 06:13:08;;;;;;;2.47;0.68;;;;;;;;;;6307293;22;20015;-79
2023/11/15 06:15:39;;;;;;;1.98;0.77;;;;;;;;;;6280188;22;20030;-79
2023/11/15 06:18:11;;;;;;;2.00;0.68;;;;;;;;;;6306726;22;20015;-78
2023/11/15 06:20:41;;;;;;;1.20;0.52;;;;;;;;;;6307744;22;20030;-82
2023/11/15 06:23:11;;;;;;;2.20;0.80;;;;;;;;;;6306742;22;20019;-78
2023/11/15 06:25:40;;;;;;;2.42;0.85;;;;;;;;;;6306258;22;20019;-81
2023/11/15 06:28:13;;;;;;;3.75;1.00;;;;;;;;;;6280373;22;20450;-79
2023/11/15 06:30:48;;;;;;;1.65;1.02;;;;;;;;;;6305637;22;20466;-79
2023/11/15 06:33:19;;;;;;;2.47;0.57;;;;;;;;;;6318251;22;20434;-79
2023/11/15 06:35:50;;;;;;;1.35;0.70;;;;;;;;;;6318297;22;20327;-80
2023/11/15 06:38:21;;;;;;;2.67;0.90;;;;;;;;;;6306028;22;20015;-78
2023/11/15 06:40:52;;;;;;;4.15;1.05;;;;;;;;;;6305556;22;20446;-80
2023/11/15 06:43:22;;;;;;;3.00;0.93;;;;;;;;;;6318079;22;20045;-78
2023/11/15 06:45:55;;;;;;;2.78;0.77;;;;;;;;;;6307851;22;20042;-79
2023/11/15 06:48:26;;;;;;;3.47;0.93;;;;;;;;;;6291091;22;20015;-79
2023/11/15 06:50:56;;;;;;;3.78;0.95;;;;;;;;;;6307969;22;20422;-80
2023/11/15 06:53:26;;;;;;;1.75;0.80;;;;;;;;;;6307950;22;20019;-80
2023/11/15 06:55:58;;;;;;;2.53;0.80;;;;;;;;;;6307171;22;20019;-78
2023/11/15 06:58:28;;;;;;;5.00;1.00;;;;;;;;;;6255061;22;20018;-79
2023/11/15 07:01:01;;;;;;;2.80;0.85;;;;;;;;;;6318290;22;20015;-80
2023/11/15 07:03:31;;;;;;;2.42;0.98;;;;;;;;;;6306842;22;20023;-79
2023/11/15 07:06:03;;;;;;;2.50;0.73;;;;;;;;;;6308384;22;20011;-78
2023/11/15 07:08:33;;;;;;;2.38;0.70;;;;;;;;;;6306540;22;20046;-79
2023/11/15 07:11:04;;;;;;;2.55;0.80;;;;;;;;;;6279149;22;20019;-82
2023/11/15 07:13:34;;;;;;;4.50;0.80;;;;;;;;;;6306925;22;20026;-78
2023/11/15 07:16:11;;;;;;;4.97;0.95;;;;;;;;;;6306228;22;20342;-81
2023/11/15 07:18:40;;;;;;;2.67;0.68;;;;;;;;;;6306717;22;20426;-80
2023/11/15 07:21:12;;;;;;;1.60;0.63;;;;;;;;;;6306464;22;20019;-80
2023/11/15 07:23:42;;;;;;;4.00;1.35;;;;;;;;;;6317794;22;20019;-83
2023/11/15 07:26:12;;;;;;;3.40;0.70;;;;;;;;;;6306535;22;20022;-79
2023/11/15 07:28:42;;;;;;;5.50;1.33;;;;;;;;;;6305961;22;20027;-79
2023/11/15 07:31:13;;;;;;;5.05;1.20;;;;;;;;;;6306492;22;20031;-80
2023/11/15 07:33:43;;;;;;;1.95;0.63;;;;;;;;;;6317518;22;20059;-80
2023/11/15 07:36:13;;;;;;;3.67;0.90;;;;;;;;;;6307116;22;20022;-79
2023/11/15 07:38:43;;;;;;;5.53;0.80;;;;;;;;;;6305554;22;20023;-81
2023/11/15 07:41:13;;;;;;;3.28;0.88;;;;;;;;;;6306593;22;20073;-78
2023/11/15 07:43:43;;;;;;;1.58;0.95;;;;;;;;;;6304999;22;20450;-80
2023/11/15 08:13:00;;;;;;;3.17;1.17;;;;;;;;;;6281148;22;20015;-77
2023/11/15 08:15:31;;;;;;;3.78;1.20;;;;;;;;;;6317422;22;20007;-78
2023/11/15 08:18:01;;;;;;;5.88;1.13;;;;;;;;;;6318320;22;20019;-78
2023/11/15 08:20:32;;;;;;;4.75;1.20;;;;;;;;;;6307518;22;20030;-79
2023/11/15 08:23:02;;;;;;;3.97;1.42;;;;;;;;;;6306645;22;20454;-78
2023/11/15 08:25:32;;;;;;;3.17;1.50;;;;;;;;;;6255296;22;20015;-79
2023/11/15 08:28:03;;;;;;;4.15;1.38;;;;;;;;;;6306745;22;20349;-77
2023/11/15 08:30:34;;;;;;;4.03;1.35;;;;;;;;;;6279641;22;20022;-78
2023/11/15 08:33:05;;;;;;;4.85;1.20;;;;;;;;;;6306837;22;20113;-78
2023/11/15 08:35:35;;;;;;;5.70;1.73;;;;;;;;;;6317256;22;20007;-78
2023/11/15 08:38:06;;;;;;;4.05;1.17;;;;;;;;;;6279063;22;20023;-78
2023/11/15 08:40:37;;;;;;;3.60;1.42;;;;;;;;;;6307273;22;20407;-80
2023/11/15 08:43:08;;;;;;;5.78;1.90;;;;;;;;;;6318094;22;20314;-78
2023/11/15 08:45:41;;;;;;;4.38;1.42;;;;;;;;;;6317907;22;20410;-77
2023/11/15 08:48:17;;;;;;;4.97;1.40;;;;;;;;;;6317536;22;20026;-77
2023/11/15 08:50:48;;;;;;;5.53;1.92;;;;;;;;;;6317313;22;20011;-78
2023/11/15 08:53:24;;;;;;;6.03;1.48;;;;;;;;;;6279170;22;20021;-77
2023/11/15 08:55:55;;;;;;;3.65;1.50;;;;;;;;;;6316938;22;20007;-78
2023/11/15 08:58:27;;;;;;;8.98;2.13;;;;;;;;;;6319004;22;20310;-78
2023/11/15 09:01:01;;;;;;;5.85;2.22;;;;;;;;;;6291988;22;20030;-80
2023/11/15 09:03:32;;;;;;;3.72;1.58;;;;;;;;;;6319238;22;20003;-78
2023/11/15 09:06:02;;;;;;;5.15;1.80;;;;;;;;;;6280912;22;20426;-78
2023/11/15 09:08:32;;;;;;;6.65;2.05;;;;;;;;;;6281220;22;20015;-80
2023/11/15 09:11:02;;;;;;;5.72;1.45;;;;;;;;;;6308082;22;20334;-78
2023/11/15 09:13:39;;;;;;;9.55;3.30;;;;;;;;;;6308668;22;20015;-79
2023/11/15 09:16:12;;;;;;;9.98;4.25;;;;;;;;;;6280472;22;20011;-78
2023/11/15 09:18:43;;;;;;;9.13;4.68;;;;;;;;;;6318800;22;20303;-80
2023/11/15 09:21:14;;;;;;;7.93;3.03;;;;;;;;;;6318365;22;20003;-79
2023/11/15 09:23:45;;;;;;;4.80;2.10;;;;;;;;;;6279272;22;20042;-78
2023/11/15 09:26:18;;;;;;;5.63;2.22;;;;;;;;;;6308688;22;20019;-79
2023/11/15 09:28:48;;;;;;;4.68;2.13;;;;;;;;;;6255918;22;20015;-81
2023/11/15 09:31:19;;;;;;;4.90;2.20;;;;;;;;;;6280904;22;20016;-78
2023/11/15 09:33:51;;;;;;;5.50;2.17;;;;;;;;;;6307748;22;20015;-79
2023/11/15 09:36:22;;;;;;;7.00;2.53;;;;;;;;;;6318539;22;20011;-79
2023/11/15 09:38:53;;;;;;;5.85;2.30;;;;;;;;;;6281724;22;20014;-79
2023/11/15 09:41:24;;;;;;;4.80;2.42;;;;;;;;;;6318185;22;20026;-79
2023/11/15 09:43:55;;;;;;;6.47;2.72;;;;;;;;;;6280628;22;20015;-78
2023/11/15 09:46:29;;;;;;;8.20;2.40;;;;;;;;;;6318860;22;20007;-78
2023/11/15 09:49:01;;;;;;;4.90;2.10;;;;;;;;;;6318833;22;20015;-78
2023/11/15 09:51:40;;;;;;;4.68;2.10;;;;;;;;;;6318471;22;20004;-79
2023/11/15 09:54:12;;;;;;;5.65;2.13;;;;;;;;;;6318802;22;20014;-78
2023/11/15 09:56:49;;;;;;;5.25;2.25;;;;;;;;;;6318700;22;20007;-78
2023/11/15 09:59:20;;;;;;;6.25;2.10;;;;;;;;;;6319669;22;20014;-79
2023/11/15 10:01:50;;;;;;;4.40;2.05;;;;;;;;;;6318860;22;20015;-80
2023/11/15 10:04:22;;;;;;;5.47;1.95;;;;;;;;;;6318016;22;20008;-81
2023/11/15 10:06:55;;;;;;;4.70;2.00;;;;;;;;;;6291362;22;20007;-81
2023/11/15 10:09:42;;;;;;;7.78;2.72;;;;;;;;;;6317621;22;20113;-79
2023/11/15 10:12:13;;;;;;;4.57;1.92;;;;;;;;;;6279893;22;20014;-81
2023/11/15 10:14:52;;;;;;;6.35;2.30;;;;;;;;;;6307715;22;20011;-79
2023/11/15 10:17:42;;;;;;;4.95;2.22;;;;;;;;;;6317688;22;20007;-81
2023/11/15 10:20:25;;;;;;;5.05;2.28;;;;;;;;;;6317888;22;20435;-80
2023/11/15 10:22:57;;;;;;;5.47;2.13;;;;;;;;;;6317912;22;20003;-79
2023/11/15 10:25:27;;;;;;;7.25;2.35;;;;;;;;;;6291082;22;20007;-79
2023/11/15 10:28:13;;;;;;;6.00;3.03;;;;;;;;;;6307141;22;20016;-77
2023/11/15 10:30:43;;;;;;;7.57;3.97;;;;;;;;;;6317254;22;20015;-79
2023/11/15 10:33:14;;;;;;;8.60;4.03;;;;;;;;;;6279952;22;20004;-78
2023/11/15 10:35:44;;;;;;;6.72;3.38;;;;;;;;;;6317610;22;20031;-78
2023/11/15 10:38:19;;;;;;;7.35;3.20;;;;;;;;;;6280392;22;20015;-79
2023/11/15 10:40:52;;;;;;;6.97;3.47;;;;;;;;;;6317378;22;20007;-81
2023/11/15 10:43:23;;;;;;;7.07;3.33;;;;;;;;;;6316533;22;20003;-79
2023/11/15 10:45:56;;;;;;;9.82;3.00;;;;;;;;;;6316541;22;20007;-79
2023/11/15 10:48:34;;;;;;;6.72;3.42;;;;;;;;;;6317014;22;20349;-78
2023/11/15 10:51:13;;;;;;;6.38;3.50;;;;;;;;;;6316923;22;20003;-79
2023/11/15 10:53:45;;;;;;;7.22;3.28;;;;;;;;;;6317639;22;20004;-79
2023/11/15 10:56:17;;;;;;;7.72;3.10;;;;;;;;;;6317214;22;20015;-79
2023/11/15 10:58:50;;;;;;;9.05;3.63;;;;;;;;;;6316035;22;20003;-81
2023/11/15 11:01:22;;;;;;;6.20;3.20;;;;;;;;;;6290173;22;20026;-78
2023/11/15 11:03:58;;;;;;;9.63;4.25;;;;;;;;;;6289776;22;20022;-79
2023/11/15 11:06:36;;;;;;;7.43;4.13;;;;;;;;;;6316927;22;20011;-82
2023/11/15 11:09:43;;;;;;;7.32;4.18;;;;;;;;;;6316890;22;20007;-79
2023/11/15 11:12:18;;;;;;;9.77;4.88;;;;;;;;;;6274154;22;20304;-81
2023/11/15 11:15:18;;;;;;;9.85;5.05;;;;;;;;;;6307858;22;20010;-80
2023/11/15 11:17:49;;;;;;;5.90;2.67;;;;;;;;;;6307790;22;20018;-80
2023/11/15 11:20:27;;;;;;;5.07;2.83;;;;;;;;;;6317109;22;20464;-80
2023/11/15 11:23:19;;;;;;;4.68;2.00;;;;;;;;;;6278665;22;20007;-82
2023/11/15 11:25:52;;;;;;;5.10;1.80;;;;;;;;;;6306913;22;20007;-80
2023/11/15 11:28:22;;;;;;;;;;;;;;;;;;6317463;22;20426;-79
2023/11/15 11:31:18;;;;;;;6.43;2.40;;;;;;;;;;6307092;22;19918;-81
2023/11/15 11:34:12;;;;;;;3.90;1.77;;;;;;;;;;6301704;22;20019;-80
2023/11/15 11:36:58;;;;;;;4.00;1.42;;;;;;;;;;6306491;22;20003;-79
2023/11/15 11:39:48;;;;;;;5.07;1.90;;;;;;;;;;6288330;22;20007;-80
2023/11/15 11:42:26;;;;;;;3.80;1.58;;;;;;;;;;6297306;22;20007;-81
2023/11/15 11:44:56;;;;;;;4.32;1.50;;;;;;;;;;6318086;22;20007;-81
2023/11/15 11:47:26;;;;;;;3.55;1.90;;;;;;;;;;6278849;22;20015;-84
2023/11/15 11:49:57;;;;;;;6.53;1.98;;;;;;;;;;6279145;22;20304;-85
2023/11/15 11:52:28;;;;;;;15.05;2.47;;;;;;;;;;6317283;22;20010;-83
2023/11/15 11:54:59;;;;;;;9.05;3.08;;;;;;;;;;6305946;22;20465;-83
2023/11/15 11:57:29;;;;;;;31.20;13.50;;;;;;;;;;6307741;22;20133;-83
2023/11/15 12:00:25;;;;;;;25.30;13.98;;;;;;;;;;6317886;22;20011;-84
2023/11/15 12:02:55;;;;;;;17.38;6.15;;;;;;;;;;6307164;22;20003;-85
2023/11/15 12:05:33;;;;;;;7.50;3.15;;;;;;;;;;6279144;22;20043;-85
2023/11/15 12:08:04;;;;;;;12.93;7.85;;;;;;;;;;6306511;22;20015;-83
2023/11/15 12:10:34;;;;;;;54.17;24.50;;;;;;;;;;6317758;22;20018;-83
2023/11/15 12:13:10;;;;;;;7.50;3.63;;;;;;;;;;6279945;22;20015;-80
2023/11/15 12:15:43;;;;;;;5.53;2.20;;;;;;;;;;6290735;22;20322;-80
2023/11/15 12:18:15;;;;;;;8.15;3.45;;;;;;;;;;6316302;22;20011;-80
2023/11/15 12:20:47;;;;;;;3.35;1.88;;;;;;;;;;6277246;22;20020;-79
2023/11/15 12:23:19;;;;;;;7.47;4.10;;;;;;;;;;6306633;22;20018;-78
2023/11/15 12:25:54;;;;;;;4.20;2.38;;;;;;;;;;6317248;22;20007;-79
2023/11/15 12:28:25;;;;;;;7.03;2.95;;;;;;;;;;6317022;22;20003;-80
2023/11/15 12:30:57;;;;;;;5.38;2.20;;;;;;;;;;6316346;22;20470;-79
2023/11/15 12:33:35;;;;;;;;;;;;;;;;;;6318750;22;20003;-79
2023/11/15 12:36:21;;;;;;;4.10;2.38;;;;;;;;;;6152587;23;19912;-80
2023/11/15 12:39:17;;;;;;;10.70;5.53;;;;;;;;;;6109128;23;20012;-80
2023/11/15 12:42:28;;;;;;;20.60;12.50;;;;;;;;;;6133321;23;20348;-79
2023/11/15 12:45:43;;;;;;;;;;;;;;;;;;;;;
2023/11/15 12:48:51;;;;;;;8.35;3.60;;;;;;;;;;6142322;23;20025;-79
2023/11/15 12:51:22;;;;;;;10.05;4.97;;;;;;;;;;6164057;23;20016;-79
2023/11/15 12:53:53;;;;;;;8.07;4.32;;;;;;;;;;6160096;23;20010;-79
2023/11/15 12:56:26;;;;;;;6.00;3.55;;;;;;;;;;6140712;23;20021;-78
2023/11/15 12:58:56;;;;;;;;;;;;;;;;;;6164684;23;20013;-81
2023/11/15 13:01:27;;;;;;;14.30;7.53;;;;;;;;;;6154162;23;19919;-78
2023/11/15 13:03:58;;;;;;;13.10;7.60;;;;;;;;;;6164261;23;20499;-79
2023/11/15 13:19:57;;;;;;;11.45;7.53;;;;;;;;;;4985294;27;3304017;-80
2023/11/15 13:50:15;;;;;;;32.38;23.67;;;;;;;;;;5049844;28;20407;-81
2023/11/15 13:52:46;;;;;;;16.63;8.20;;;;;;;;;;5049920;28;20057;-81
2023/11/15 13:55:16;;;;;;;12.70;6.05;;;;;;;;;;5081576;28;20045;-81
2023/11/15 13:57:46;;;;;;;10.93;5.57;;;;;;;;;;5048369;28;20048;-81
2023/11/15 14:00:23;;;;;;;5.65;2.78;;;;;;;;;;5049724;28;20045;-82
2023/11/15 14:02:54;;;;;;;7.25;3.33;;;;;;;;;;5049686;28;20049;-81
2023/11/15 14:05:25;;;;;;;5.35;2.30;;;;;;;;;;5080778;28;20060;-81
2023/11/15 14:07:57;;;;;;;;;;;;;;;;;;5048331;28;20080;-82
2023/11/15 14:10:29;;;;;;;3.13;1.58;;;;;;;;;;5049774;28;19928;-81
2023/11/15 14:13:03;;;;;;;4.53;2.15;;;;;;;;;;5049929;28;20041;-81
2023/11/15 14:15:36;;;;;;;6.60;2.50;;;;;;;;;;5049580;28;20041;-81
2023/11/15 14:18:06;;;;;;;;;;;;;;;;;;5049662;28;20392;-78
2023/11/15 14:20:38;;;;;;;5.03;2.60;;;;;;;;;;5049348;28;19921;-81
2023/11/15 14:23:12;;;;;;;3.60;1.70;;;;;;;;;;5050039;28;20037;-78
2023/11/15 14:25:43;;;;;;;16.77;13.55;;;;;;;;;;5050477;28;20443;-80
2023/11/15 14:28:15;;;;;;;4.22;2.33;;;;;;;;;;5045914;28;20375;-79
2023/11/15 14:30:45;;;;;;;4.75;2.00;;;;;;;;;;5048103;28;20041;-80
2023/11/15 14:33:16;;;;;;;4.70;1.40;;;;;;;;;;5061195;28;20061;-81
2023/11/15 14:35:47;;;;;;;4.97;3.25;;;;;;;;;;5034239;28;20056;-82
2023/11/15 14:38:17;;;;;;;3.58;1.95;;;;;;;;;;5034129;28;20056;-80
2023/11/15 14:40:47;;;;;;;9.10;4.97;;;;;;;;;;5035821;28;20037;-80
2023/11/15 14:43:18;;;;;;;9.93;6.30;;;;;;;;;;5034102;28;20052;-80
2023/11/15 14:45:50;;;;;;;9.43;5.00;;;;;;;;;;5035827;28;20058;-83
2023/11/15 14:48:21;;;;;;;5.72;2.33;;;;;;;;;;5034973;28;20073;-80
2023/11/15 14:50:52;;;;;;;4.47;2.03;;;;;;;;;;5034508;28;20108;-80
2023/11/15 14:55:51;;;;;;;2.63;1.23;;;;;;;;;;5035250;28;20041;-80
2023/11/15 14:58:24;;;;;;;9.20;4.95;;;;;;;;;;5034362;28;20061;-80
2023/11/15 15:00:56;;;;;;;3.30;1.67;;;;;;;;;;5035275;28;20053;-80
2023/11/15 15:03:26;;;;;;;5.13;2.78;;;;;;;;;;5035207;28;20049;-79
2023/11/15 15:06:00;;;;;;;76.22;42.53;;;;;;;;;;5035663;28;20042;-80
2023/11/15 15:08:34;;;;;;;10.18;5.00;;;;;;;;;;5035244;28;20049;-80
2023/11/15 15:11:05;;;;;;;5.93;2.40;;;;;;;;;;5033612;28;20057;-82
2023/11/15 15:13:36;;;;;;;;;;;;;;;;;;5035400;28;20048;-81
2023/11/15 15:16:06;;;;;;;10.43;6.30;;;;;;;;;;5035299;28;19921;-82
2023/11/15 15:18:38;;;;;;;3.15;1.73;;;;;;;;;;5035467;28;20046;-83
2023/11/15 15:21:09;;;;;;;2.50;1.30;;;;;;;;;;5034855;28;20041;-82
2023/11/15 15:23:40;;;;;;;3.55;1.23;;;;;;;;;;5034763;28;20038;-80
2023/11/15 15:26:14;;;;;;;4.28;1.30;;;;;;;;;;5034689;28;20578;-80
2023/11/15 15:28:47;;;;;;;3.13;1.50;;;;;;;;;;5035409;28;20049;-82
2023/11/15 15:31:17;;;;;;;6.25;2.40;;;;;;;;;;5034465;28;20044;-80
2023/11/15 15:33:47;;;;;;;6.55;2.88;;;;;;;;;;5033925;28;20080;-83
2023/11/15 15:36:20;;;;;;;8.18;3.35;;;;;;;;;;5033332;28;20403;-82
2023/11/15 15:38:50;;;;;;;4.05;1.55;;;;;;;;;;5033617;28;20423;-80
2023/11/15 15:41:22;;;;;;;1.77;0.77;;;;;;;;;;5033024;28;20041;-81
2023/11/15 15:43:52;;;;;;;2.83;1.33;;;;;;;;;;5034663;28;20054;-82
2023/11/15 15:46:25;;;;;;;5.05;2.63;;;;;;;;;;5033693;28;20042;-80
2023/11/15 15:48:57;;;;;;;5.72;1.98;;;;;;;;;;5033227;28;20064;-83
2023/11/15 15:51:28;;;;;;;2.63;1.10;;;;;;;;;;5034296;28;20042;-83
2023/11/15 15:54:01;;;;;;;2.58;1.20;;;;;;;;;;5033962;28;20364;-82
2023/11/15 15:56:31;;;;;;;1.45;0.95;;;;;;;;;;5034296;28;20042;-82
2023/11/15 15:59:02;;;;;;;1.35;0.60;;;;;;;;;;5030806;28;20068;-80
2023/11/15 16:01:32;;;;;;;2.08;0.93;;;;;;;;;;5031811;28;20049;-84
2023/11/15 16:04:03;;;;;;;1.92;0.70;;;;;;;;;;5062899;28;20054;-79
2023/11/15 16:06:34;;;;;;;1.52;1.00;;;;;;;;;;5031810;28;20377;-80
2023/11/15 16:09:07;;;;;;;1.60;0.80;;;;;;;;;;5030058;28;20060;-83
2023/11/15 16:11:37;;;;;;;1.58;0.63;;;;;;;;;;5030318;28;20056;-82
2023/11/15 16:14:07;;;;;;;1.63;0.70;;;;;;;;;;5031247;28;20050;-81
2023/11/15 16:16:37;;;;;;;1.15;0.70;;;;;;;;;;5032073;28;20050;-81
2023/11/15 16:19:07;;;;;;;1.17;0.63;;;;;;;;;;5030001;28;20057;-82
2023/11/15 16:21:37;;;;;;;1.45;0.63;;;;;;;;;;5030740;28;20053;-81
2023/11/15 16:24:08;;;;;;;1.85;0.70;;;;;;;;;;5029865;28;20539;-81
2023/11/15 16:26:38;;;;;;;4.85;1.45;;;;;;;;;;5031848;28;20099;-81
2023/11/15 16:29:14;;;;;;;1.60;1.00;;;;;;;;;;5029876;28;20507;-81
2023/11/15 16:31:45;;;;;;;2.35;0.90;;;;;;;;;;5031463;28;20045;-82
2023/11/15 16:34:15;;;;;;;2.35;0.93;;;;;;;;;;5031818;28;20116;-82
2023/11/15 16:36:47;;;;;;;1.85;1.58;;;;;;;;;;5031807;28;20396;-84
2023/11/15 16:39:24;;;;;;;3.55;1.67;;;;;;;;;;5031511;28;20037;-85
2023/11/15 16:41:54;;;;;;;3.38;1.50;;;;;;;;;;5013822;28;20514;-81
2023/11/15 16:44:28;;;;;;;3.50;1.92;;;;;;;;;;5031435;28;20056;-80
2023/11/15 16:46:59;;;;;;;3.08;1.42;;;;;;;;;;5062570;28;20045;-82
2023/11/15 16:49:30;;;;;;;3.30;1.75;;;;;;;;;;5030062;28;20484;-83
2023/11/15 16:52:01;;;;;;;4.35;2.60;;;;;;;;;;5030692;28;20053;-83
2023/11/15 16:54:34;;;;;;;7.55;3.20;;;;;;;;;;5031280;28;20514;-83
2023/11/15 16:57:06;;;;;;;5.70;3.80;;;;;;;;;;5030562;28;20408;-83
2023/11/15 16:59:37;;;;;;;8.07;3.75;;;;;;;;;;5029943;28;20050;-81
2023/11/15 17:02:07;;;;;;;8.27;4.10;;;;;;;;;;5029234;28;20066;-82
2023/11/15 17:04:37;;;;;;;7.82;4.68;;;;;;;;;;5030957;28;20057;-82
2023/11/15 17:07:07;;;;;;;8.38;4.75;;;;;;;;;;5029557;28;20053;-81
2023/11/15 17:09:38;;;;;;;7.20;4.53;;;;;;;;;;5031440;28;20518;-86
2023/11/15 17:12:09;;;;;;;6.47;4.35;;;;;;;;;;5029500;28;20060;-83
2023/11/15 17:14:40;;;;;;;7.70;4.40;;;;;;;;;;5032849;28;20460;-80
2023/11/15 17:17:10;;;;;;;6.28;4.82;;;;;;;;;;5032783;28;20403;-85
2023/11/15 17:19:41;;;;;;;7.97;3.92;;;;;;;;;;5031702;28;20045;-83
2023/11/15 17:22:13;;;;;;;6.00;3.65;;;;;;;;;;5032089;28;20511;-84
2023/11/15 17:24:45;;;;;;;6.63;4.57;;;;;;;;;;5032110;28;20395;-84
2023/11/15 17:27:15;;;;;;;8.07;5.07;;;;;;;;;;5031362;28;20341;-82
2023/11/15 17:29:48;;;;;;;5.68;3.58;;;;;;;;;;5031737;28;20056;-81
2023/11/15 17:32:18;;;;;;;9.13;4.13;;;;;;;;;;5032789;28;20049;-82
2023/11/15 17:34:49;;;;;;;7.45;4.53;;;;;;;;;;5032846;28;20472;-81
2023/11/15 17:37:20;;;;;;;7.07;4.28;;;;;;;;;;5032937;28;20057;-83
2023/11/15 17:39:50;;;;;;;7.13;4.20;;;;;;;;;;5032471;28;20048;-84
2023/11/15 17:42:20;;;;;;;9.07;4.60;;;;;;;;;;5031531;28;20049;-82
2023/11/15 17:44:50;;;;;;;7.60;4.35;;;;;;;;;;5064631;28;20057;-83
2023/11/15 17:47:23;;;;;;;8.55;4.55;;;;;;;;;;5032724;28;20038;-81
2023/11/15 17:49:55;;;;;;;9.48;5.65;;;;;;;;;;5031421;28;20052;-81
2023/11/15 17:52:27;;;;;;;8.48;5.25;;;;;;;;;;5032392;28;20049;-84
2023/11/15 17:54:57;;;;;;;9.27;5.72;;;;;;;;;;5033194;28;20052;-82
2023/11/15 17:57:33;;;;;;;9.75;5.65;;;;;;;;;;5032694;28;20061;-84
2023/11/15 18:00:08;;;;;;;8.85;5.30;;;;;;;;;;5030367;28;20037;-82
2023/11/15 18:02:47;;;;;;;10.98;5.45;;;;;;;;;;5030355;28;20058;-82
2023/11/15 18:05:17;;;;;;;8.10;5.65;;;;;;;;;;5045450;28;20041;-82
2023/11/15 18:07:48;;;;;;;9.95;6.07;;;;;;;;;;5028707;28;20069;-82
2023/11/15 18:10:23;;;;;;;8.77;5.78;;;;;;;;;;5031748;28;20053;-86
2023/11/15 18:12:54;;;;;;;7.70;4.95;;;;;;;;;;5022716;28;20060;-82
2023/11/15 18:15:24;;;;;;;10.57;5.88;;;;;;;;;;5032879;28;20043;-84
2023/11/15 18:17:54;;;;;;;9.63;5.93;;;;;;;;;;5032606;28;20400;-81
2023/11/15 18:20:26;;;;;;;8.60;5.45;;;;;;;;;;5034224;28;20038;-85
2023/11/15 18:22:58;;;;;;;9.55;5.45;;;;;;;;;;5033358;28;20049;-82
2023/11/15 18:25:28;;;;;;;9.82;5.30;;;;;;;;;;5033897;28;20041;-82
2023/11/15 18:27:58;;;;;;;8.68;5.60;;;;;;;;;;5033663;28;20061;-80
2023/11/15 18:30:28;;;;;;;10.52;5.97;;;;;;;;;;5033771;28;20048;-83
2023/11/15 18:32:58;;;;;;;9.80;6.00;;;;;;;;;;5032254;28;20049;-82
2023/11/15 18:35:29;;;;;;;9.82;6.28;;;;;;;;;;5033029;28;20045;-85
2023/11/15 18:37:59;;;;;;;9.60;6.57;;;;;;;;;;5033806;28;20037;-80
2023/11/15 18:40:31;;;;;;;11.55;5.88;;;;;;;;;;5032874;28;20049;-82
2023/11/15 18:43:02;;;;;;;9.27;6.20;;;;;;;;;;5032981;28;20066;-82
2023/11/15 18:45:34;;;;;;;11.65;6.35;;;;;;;;;;5042429;28;20065;-81
2023/11/15 18:48:06;;;;;;;10.10;7.05;;;;;;;;;;5055144;28;20045;-82
2023/11/15 18:50:36;;;;;;;10.88;6.90;;;;;;;;;;5054842;28;20060;-83
2023/11/15 18:53:07;;;;;;;9.43;6.35;;;;;;;;;;5035637;28;20060;-80
2023/11/15 18:55:38;;;;;;;9.43;6.32;;;;;;;;;;5035683;28;20053;-81
2023/11/15 18:58:08;;;;;;;9.98;6.65;;;;;;;;;;5035045;28;20049;-82
2023/11/15 19:00:38;;;;;;;11.15;6.32;;;;;;;;;;5035786;28;20045;-82
2023/11/15 19:03:08;;;;;;;10.38;6.85;;;;;;;;;;5034950;28;20045;-81
2023/11/15 19:05:40;;;;;;;9.75;6.13;;;;;;;;;;5035225;28;20057;-81
2023/11/15 19:08:11;;;;;;;11.63;6.18;;;;;;;;;;5035300;28;20100;-83
2023/11/15 19:10:42;;;;;;;9.13;6.03;;;;;;;;;;5033403;28;20042;-81
2023/11/15 19:13:13;;;;;;;10.10;6.18;;;;;;;;;;5063573;28;20053;-84
2023/11/15 19:15:45;;;;;;;9.20;6.07;;;;;;;;;;5032861;28;20057;-81
2023/11/15 19:18:16;;;;;;;10.15;7.05;;;;;;;;;;5030943;28;20692;-82
2023/11/15 19:20:48;;;;;;;12.18;6.50;;;;;;;;;;5032602;28;20056;-82
2023/11/15 19:23:20;;;;;;;11.70;6.90;;;;;;;;;;5031362;28;20045;-83
2023/11/15 19:25:50;;;;;;;11.52;6.22;;;;;;;;;;5032924;28;20057;-82
2023/11/15 19:28:20;;;;;;;10.85;6.90;;;;;;;;;;5032673;28;20053;-80
2023/11/15 19:30:51;;;;;;;10.70;6.72;;;;;;;;;;5064251;28;20076;-81
2023/11/15 19:33:21;;;;;;;13.23;6.57;;;;;;;;;;5032425;28;20052;-81
2023/11/15 19:36:32;;;;;;;12.13;6.35;;;;;;;;;;5031071;28;20057;-82
2023/11/15 19:39:40;;;;;;;11.40;7.15;;;;;;;;;;5042317;28;20060;-81
2023/11/15 19:42:12;;;;;;;10.63;6.63;;;;;;;;;;5032279;28;20057;-80
2023/11/15 19:44:43;;;;;;;12.18;7.15;;;;;;;;;;5036993;28;20045;-81
2023/11/15 19:47:12;;;;;;;10.35;6.97;;;;;;;;;;5030852;28;20037;-82
2023/11/15 19:49:43;;;;;;;10.82;6.93;;;;;;;;;;5031422;28;20057;-80
2023/11/15 19:52:13;;;;;;;13.20;7.57;;;;;;;;;;5064481;28;20057;-83
2023/11/15 19:54:43;;;;;;;11.32;6.30;;;;;;;;;;5064400;28;20061;-83